sensor_id;sensor_type;location;lat;lon;timestamp;temperature;humidity
48946;DHT22;34999;50.940;3.998;2023-09-18T00:02:22;20.20;99.90
48946;DHT22;34999;50.940;3.998;2023-09-18T00:04:51;20.20;99.90
48946;DHT22;34999;50.940;3.998;2023-09-18T00:07:20;20.10;99.90
48946;DHT22;34999;50.940;3.998;2023-09-18T00:09:48;20.10;99.90
48946;DHT22;34999;50.940;3.998;2023-09-18T00:12:18;20.10;99.90
48946;DHT22;34999;50.940;3.998;2023-09-18T00:14:49;20.10;99.90
48946;DHT22;34999;50.940;3.998;2023-09-18T00:17:18;20.20;99.90
48946;DHT22;34999;50.940;3.998;2023-09-18T00:19:46;20.10;99.90
48946;DHT22;34999;50.940;3.998;2023-09-18T00:22:14;20.20;99.90
48946;DHT22;34999;50.940;3.998;2023-09-18T00:24:43;20.40;99.90
48946;DHT22;34999;50.940;3.998;2023-09-18T00:27:11;20.50;99.90
48946;DHT22;34999;50.940;3.998;2023-09-18T00:29:40;20.60;99.90
48946;DHT22;34999;50.940;3.998;2023-09-18T00:32:10;20.70;99.90
48946;DHT22;34999;50.940;3.998;2023-09-18T00:34:38;20.70;99.90
48946;DHT22;34999;50.940;3.998;2023-09-18T00:37:07;20.60;99.90
48946;DHT22;34999;50.940;3.998;2023-09-18T00:39:37;20.60;99.90
48946;DHT22;34999;50.940;3.998;2023-09-18T00:42:06;20.60;99.90
48946;DHT22;34999;50.940;3.998;2023-09-18T00:44:34;20.60;99.90
48946;DHT22;34999;50.940;3.998;2023-09-18T00:47:03;20.50;99.90
48946;DHT22;34999;50.940;3.998;2023-09-18T00:49:33;20.50;99.90
48946;DHT22;34999;50.940;3.998;2023-09-18T00:52:02;20.40;99.90
48946;DHT22;34999;50.940;3.998;2023-09-18T00:54:31;20.40;99.90
48946;DHT22;34999;50.940;3.998;2023-09-18T00:57:01;20.40;99.90
48946;DHT22;34999;50.940;3.998;2023-09-18T00:59:29;20.40;99.90
48946;DHT22;34999;50.940;3.998;2023-09-18T01:01:59;20.40;99.90
48946;DHT22;34999;50.940;3.998;2023-09-18T01:04:28;20.40;99.90
48946;DHT22;34999;50.940;3.998;2023-09-18T01:07:01;20.30;99.90
48946;DHT22;34999;50.940;3.998;2023-09-18T01:09:30;20.20;99.90
48946;DHT22;34999;50.940;3.998;2023-09-18T01:12:03;20.10;99.90
48946;DHT22;34999;50.940;3.998;2023-09-18T01:14:39;20.00;99.90
48946;DHT22;34999;50.940;3.998;2023-09-18T01:17:10;20.00;99.90
48946;DHT22;34999;50.940;3.998;2023-09-18T01:19:42;20.00;99.90
48946;DHT22;34999;50.940;3.998;2023-09-18T01:22:15;19.90;99.90
48946;DHT22;34999;50.940;3.998;2023-09-18T01:24:46;19.90;99.90
48946;DHT22;34999;50.940;3.998;2023-09-18T01:27:17;19.90;99.90
48946;DHT22;34999;50.940;3.998;2023-09-18T01:29:47;19.90;99.90
48946;DHT22;34999;50.940;3.998;2023-09-18T01:32:16;19.90;99.90
48946;DHT22;34999;50.940;3.998;2023-09-18T01:34:46;19.90;99.90
48946;DHT22;34999;50.940;3.998;2023-09-18T01:37:17;19.90;99.90
48946;DHT22;34999;50.940;3.998;2023-09-18T01:39:50;19.90;99.90
48946;DHT22;34999;50.940;3.998;2023-09-18T01:42:20;19.90;99.90
48946;DHT22;34999;50.940;3.998;2023-09-18T01:44:48;19.80;99.90
48946;DHT22;34999;50.940;3.998;2023-09-18T01:47:18;19.70;99.90
48946;DHT22;34999;50.940;3.998;2023-09-18T01:49:47;19.60;99.90
48946;DHT22;34999;50.940;3.998;2023-09-18T01:52:16;19.60;99.90
48946;DHT22;34999;50.940;3.998;2023-09-18T01:54:45;19.60;99.90
48946;DHT22;34999;50.940;3.998;2023-09-18T01:57:15;19.60;99.90
48946;DHT22;34999;50.940;3.998;2023-09-18T01:59:43;19.60;99.90
48946;DHT22;34999;50.940;3.998;2023-09-18T02:02:13;19.60;99.90
48946;DHT22;34999;50.940;3.998;2023-09-18T02:04:51;19.60;99.90
48946;DHT22;34999;50.940;3.998;2023-09-18T02:07:33;19.60;99.90
48946;DHT22;34999;50.940;3.998;2023-09-18T02:10:03;19.60;99.90
48946;DHT22;34999;50.940;3.998;2023-09-18T02:12:33;19.60;99.90
48946;DHT22;34999;50.940;3.998;2023-09-18T02:15:01;19.50;99.90
48946;DHT22;34999;50.940;3.998;2023-09-18T02:17:35;19.40;99.90
48946;DHT22;34999;50.940;3.998;2023-09-18T02:20:04;19.30;99.90
48946;DHT22;34999;50.940;3.998;2023-09-18T02:22:39;19.40;99.90
48946;DHT22;34999;50.940;3.998;2023-09-18T02:25:08;19.30;99.90
48946;DHT22;34999;50.940;3.998;2023-09-18T02:27:38;19.20;99.90
48946;DHT22;34999;50.940;3.998;2023-09-18T02:30:07;19.20;99.90
48946;DHT22;34999;50.940;3.998;2023-09-18T02:32:36;19.10;99.90
48946;DHT22;34999;50.940;3.998;2023-09-18T02:35:06;19.10;99.90
48946;DHT22;34999;50.940;3.998;2023-09-18T02:37:35;19.10;99.90
48946;DHT22;34999;50.940;3.998;2023-09-18T02:40:05;19.10;99.90
48946;DHT22;34999;50.940;3.998;2023-09-18T02:42:34;19.10;99.90
48946;DHT22;34999;50.940;3.998;2023-09-18T02:45:05;19.10;99.90
48946;DHT22;34999;50.940;3.998;2023-09-18T02:47:35;19.10;99.90
48946;DHT22;34999;50.940;3.998;2023-09-18T02:50:05;19.10;99.90
48946;DHT22;34999;50.940;3.998;2023-09-18T02:52:34;19.20;99.90
48946;DHT22;34999;50.940;3.998;2023-09-18T02:55:02;19.20;99.90
48946;DHT22;34999;50.940;3.998;2023-09-18T02:57:31;19.20;99.90
48946;DHT22;34999;50.940;3.998;2023-09-18T02:59:59;19.20;99.90
48946;DHT22;34999;50.940;3.998;2023-09-18T03:02:29;19.20;99.90
48946;DHT22;34999;50.940;3.998;2023-09-18T03:04:58;19.20;99.90
48946;DHT22;34999;50.940;3.998;2023-09-18T03:07:26;19.20;99.90
48946;DHT22;34999;50.940;3.998;2023-09-18T03:09:56;19.30;99.90
48946;DHT22;34999;50.940;3.998;2023-09-18T03:12:25;19.30;99.90
48946;DHT22;34999;50.940;3.998;2023-09-18T03:14:53;19.30;99.90
48946;DHT22;34999;50.940;3.998;2023-09-18T03:17:21;19.30;99.90
48946;DHT22;34999;50.940;3.998;2023-09-18T03:19:51;19.30;99.90
48946;DHT22;34999;50.940;3.998;2023-09-18T03:22:20;19.20;99.90
48946;DHT22;34999;50.940;3.998;2023-09-18T03:24:48;19.20;99.90
48946;DHT22;34999;50.940;3.998;2023-09-18T03:27:18;19.20;99.90
48946;DHT22;34999;50.940;3.998;2023-09-18T03:29:47;19.20;99.90
48946;DHT22;34999;50.940;3.998;2023-09-18T03:32:15;19.20;99.90
48946;DHT22;34999;50.940;3.998;2023-09-18T03:34:43;19.20;99.90
48946;DHT22;34999;50.940;3.998;2023-09-18T03:37:13;19.20;99.90
48946;DHT22;34999;50.940;3.998;2023-09-18T03:39:42;19.20;99.90
48946;DHT22;34999;50.940;3.998;2023-09-18T03:42:10;19.20;99.90
48946;DHT22;34999;50.940;3.998;2023-09-18T03:44:38;19.10;99.90
48946;DHT22;34999;50.940;3.998;2023-09-18T03:47:07;19.10;99.90
48946;DHT22;34999;50.940;3.998;2023-09-18T03:49:35;19.10;99.90
48946;DHT22;34999;50.940;3.998;2023-09-18T03:52:04;19.10;99.90
48946;DHT22;34999;50.940;3.998;2023-09-18T03:54:34;19.10;99.90
48946;DHT22;34999;50.940;3.998;2023-09-18T03:57:02;19.10;99.90
48946;DHT22;34999;50.940;3.998;2023-09-18T03:59:31;19.00;99.90
48946;DHT22;34999;50.940;3.998;2023-09-18T04:01:59;19.00;99.90
48946;DHT22;34999;50.940;3.998;2023-09-18T04:04:27;19.00;99.90
48946;DHT22;34999;50.940;3.998;2023-09-18T04:06:56;18.90;99.90
48946;DHT22;34999;50.940;3.998;2023-09-18T04:09:24;18.90;99.90
48946;DHT22;34999;50.940;3.998;2023-09-18T04:11:54;18.90;99.90
48946;DHT22;34999;50.940;3.998;2023-09-18T04:14:23;18.80;99.90
48946;DHT22;34999;50.940;3.998;2023-09-18T04:16:51;18.80;99.90
48946;DHT22;34999;50.940;3.998;2023-09-18T04:19:20;18.80;99.90
48946;DHT22;34999;50.940;3.998;2023-09-18T04:21:48;18.80;99.90
48946;DHT22;34999;50.940;3.998;2023-09-18T04:24:16;18.80;99.90
48946;DHT22;34999;50.940;3.998;2023-09-18T04:26:45;18.80;99.90
48946;DHT22;34999;50.940;3.998;2023-09-18T04:29:15;18.80;99.90
48946;DHT22;34999;50.940;3.998;2023-09-18T04:31:43;18.80;99.90
48946;DHT22;34999;50.940;3.998;2023-09-18T04:34:12;18.70;99.90
48946;DHT22;34999;50.940;3.998;2023-09-18T04:36:40;18.80;99.90
48946;DHT22;34999;50.940;3.998;2023-09-18T04:39:10;18.80;99.90
48946;DHT22;34999;50.940;3.998;2023-09-18T04:41:48;18.80;99.90
48946;DHT22;34999;50.940;3.998;2023-09-18T04:44:18;18.70;99.90
48946;DHT22;34999;50.940;3.998;2023-09-18T04:46:46;18.70;99.90
48946;DHT22;34999;50.940;3.998;2023-09-18T04:49:15;18.70;99.90
48946;DHT22;34999;50.940;3.998;2023-09-18T04:51:44;18.70;99.90
48946;DHT22;34999;50.940;3.998;2023-09-18T04:54:12;18.70;99.90
48946;DHT22;34999;50.940;3.998;2023-09-18T04:56:42;18.60;99.90
48946;DHT22;34999;50.940;3.998;2023-09-18T04:59:10;18.70;99.90
48946;DHT22;34999;50.940;3.998;2023-09-18T05:01:40;18.60;99.90
48946;DHT22;34999;50.940;3.998;2023-09-18T05:04:09;18.60;99.90
48946;DHT22;34999;50.940;3.998;2023-09-18T05:06:38;18.60;99.90
48946;DHT22;34999;50.940;3.998;2023-09-18T05:09:07;18.60;99.90
48946;DHT22;34999;50.940;3.998;2023-09-18T05:11:36;18.60;99.90
48946;DHT22;34999;50.940;3.998;2023-09-18T05:14:04;18.60;99.90
48946;DHT22;34999;50.940;3.998;2023-09-18T05:16:33;18.60;99.90
48946;DHT22;34999;50.940;3.998;2023-09-18T05:19:03;18.50;99.90
48946;DHT22;34999;50.940;3.998;2023-09-18T05:21:32;18.50;99.90
48946;DHT22;34999;50.940;3.998;2023-09-18T05:24:02;18.50;99.90
48946;DHT22;34999;50.940;3.998;2023-09-18T05:26:31;18.40;99.90
48946;DHT22;34999;50.940;3.998;2023-09-18T05:29:00;18.50;99.90
48946;DHT22;34999;50.940;3.998;2023-09-18T05:31:31;18.40;99.90
48946;DHT22;34999;50.940;3.998;2023-09-18T05:33:59;18.40;99.90
48946;DHT22;34999;50.940;3.998;2023-09-18T05:36:29;18.40;99.90
48946;DHT22;34999;50.940;3.998;2023-09-18T05:38:57;18.50;99.90
48946;DHT22;34999;50.940;3.998;2023-09-18T05:41:30;18.40;99.90
48946;DHT22;34999;50.940;3.998;2023-09-18T05:43:59;18.40;99.90
48946;DHT22;34999;50.940;3.998;2023-09-18T05:46:30;18.30;99.90
48946;DHT22;34999;50.940;3.998;2023-09-18T05:48:59;18.30;99.90
48946;DHT22;34999;50.940;3.998;2023-09-18T05:51:30;18.20;99.90
48946;DHT22;34999;50.940;3.998;2023-09-18T05:54:00;18.20;99.90
48946;DHT22;34999;50.940;3.998;2023-09-18T05:56:29;18.30;99.90
48946;DHT22;34999;50.940;3.998;2023-09-18T05:58:58;18.30;99.90
48946;DHT22;34999;50.940;3.998;2023-09-18T06:01:26;18.20;99.90
48946;DHT22;34999;50.940;3.998;2023-09-18T06:03:55;18.20;99.90
48946;DHT22;34999;50.940;3.998;2023-09-18T06:06:23;18.20;99.90
48946;DHT22;34999;50.940;3.998;2023-09-18T06:08:54;18.20;99.90
48946;DHT22;34999;50.940;3.998;2023-09-18T06:11:22;18.30;99.90
48946;DHT22;34999;50.940;3.998;2023-09-18T06:13:51;18.30;99.90
48946;DHT22;34999;50.940;3.998;2023-09-18T06:16:19;18.30;99.90
48946;DHT22;34999;50.940;3.998;2023-09-18T06:18:47;18.20;99.90
48946;DHT22;34999;50.940;3.998;2023-09-18T06:21:16;18.20;99.90
48946;DHT22;34999;50.940;3.998;2023-09-18T06:23:45;18.10;99.90
48946;DHT22;34999;50.940;3.998;2023-09-18T06:26:15;18.10;99.90
48946;DHT22;34999;50.940;3.998;2023-09-18T06:28:43;18.20;99.90
48946;DHT22;34999;50.940;3.998;2023-09-18T06:31:11;18.20;99.90
48946;DHT22;34999;50.940;3.998;2023-09-18T06:33:40;18.10;99.90
48946;DHT22;34999;50.940;3.998;2023-09-18T06:36:08;18.20;99.90
48946;DHT22;34999;50.940;3.998;2023-09-18T06:38:37;18.20;99.90
48946;DHT22;34999;50.940;3.998;2023-09-18T06:41:05;18.30;99.90
48946;DHT22;34999;50.940;3.998;2023-09-18T06:43:35;18.20;99.90
48946;DHT22;34999;50.940;3.998;2023-09-18T06:46:07;18.20;99.90
48946;DHT22;34999;50.940;3.998;2023-09-18T06:48:36;18.30;99.90
48946;DHT22;34999;50.940;3.998;2023-09-18T06:51:04;18.30;99.90
48946;DHT22;34999;50.940;3.998;2023-09-18T06:53:33;18.40;99.90
48946;DHT22;34999;50.940;3.998;2023-09-18T06:56:02;18.40;99.90
48946;DHT22;34999;50.940;3.998;2023-09-18T06:58:30;18.50;99.90
48946;DHT22;34999;50.940;3.998;2023-09-18T07:01:01;18.50;99.90
48946;DHT22;34999;50.940;3.998;2023-09-18T07:03:30;18.50;99.90
48946;DHT22;34999;50.940;3.998;2023-09-18T07:05:59;18.50;99.90
48946;DHT22;34999;50.940;3.998;2023-09-18T07:08:27;18.50;99.90
48946;DHT22;34999;50.940;3.998;2023-09-18T07:10:57;18.60;99.90
48946;DHT22;34999;50.940;3.998;2023-09-18T07:13:25;18.80;99.90
48946;DHT22;34999;50.940;3.998;2023-09-18T07:15:54;19.00;99.90
48946;DHT22;34999;50.940;3.998;2023-09-18T07:18:24;19.20;99.90
48946;DHT22;34999;50.940;3.998;2023-09-18T07:20:52;19.30;99.90
48946;DHT22;34999;50.940;3.998;2023-09-18T07:23:21;19.50;99.90
48946;DHT22;34999;50.940;3.998;2023-09-18T07:25:50;19.50;99.90
48946;DHT22;34999;50.940;3.998;2023-09-18T07:28:19;19.50;99.90
48946;DHT22;34999;50.940;3.998;2023-09-18T07:30:47;19.50;99.90
48946;DHT22;34999;50.940;3.998;2023-09-18T07:33:16;19.50;99.90
48946;DHT22;34999;50.940;3.998;2023-09-18T07:35:47;19.50;99.90
48946;DHT22;34999;50.940;3.998;2023-09-18T07:38:16;19.40;99.90
48946;DHT22;34999;50.940;3.998;2023-09-18T07:40:46;19.40;99.90
48946;DHT22;34999;50.940;3.998;2023-09-18T07:43:14;19.30;99.90
48946;DHT22;34999;50.940;3.998;2023-09-18T07:45:43;19.30;99.90
48946;DHT22;34999;50.940;3.998;2023-09-18T07:48:11;19.30;99.90
48946;DHT22;34999;50.940;3.998;2023-09-18T07:50:43;19.40;99.90
48946;DHT22;34999;50.940;3.998;2023-09-18T07:53:13;19.40;99.90
48946;DHT22;34999;50.940;3.998;2023-09-18T07:55:42;19.40;99.90
48946;DHT22;34999;50.940;3.998;2023-09-18T07:58:10;19.40;99.90
48946;DHT22;34999;50.940;3.998;2023-09-18T08:00:39;19.60;99.90
48946;DHT22;34999;50.940;3.998;2023-09-18T08:03:07;19.70;99.90
48946;DHT22;34999;50.940;3.998;2023-09-18T08:05:36;19.90;99.90
48946;DHT22;34999;50.940;3.998;2023-09-18T08:08:05;19.90;99.90
48946;DHT22;34999;50.940;3.998;2023-09-18T08:10:38;19.80;99.90
48946;DHT22;34999;50.940;3.998;2023-09-18T08:13:07;19.80;99.90
48946;DHT22;34999;50.940;3.998;2023-09-18T08:15:35;19.80;99.90
48946;DHT22;34999;50.940;3.998;2023-09-18T08:18:05;19.80;99.90
48946;DHT22;34999;50.940;3.998;2023-09-18T08:20:33;19.70;99.90
48946;DHT22;34999;50.940;3.998;2023-09-18T08:23:04;19.70;99.90
48946;DHT22;34999;50.940;3.998;2023-09-18T08:25:32;19.70;99.90
48946;DHT22;34999;50.940;3.998;2023-09-18T08:28:02;19.70;99.90
48946;DHT22;34999;50.940;3.998;2023-09-18T08:30:35;19.70;99.90
48946;DHT22;34999;50.940;3.998;2023-09-18T08:33:06;19.70;99.90
48946;DHT22;34999;50.940;3.998;2023-09-18T08:35:34;19.70;99.90
48946;DHT22;34999;50.940;3.998;2023-09-18T08:38:03;19.60;99.90
48946;DHT22;34999;50.940;3.998;2023-09-18T08:40:33;19.60;99.90
48946;DHT22;34999;50.940;3.998;2023-09-18T08:43:04;19.60;99.90
48946;DHT22;34999;50.940;3.998;2023-09-18T08:45:37;19.50;99.90
48946;DHT22;34999;50.940;3.998;2023-09-18T08:48:06;19.60;99.90
48946;DHT22;34999;50.940;3.998;2023-09-18T08:50:36;19.50;99.90
48946;DHT22;34999;50.940;3.998;2023-09-18T08:53:06;19.50;99.90
48946;DHT22;34999;50.940;3.998;2023-09-18T08:55:34;19.40;99.90
48946;DHT22;34999;50.940;3.998;2023-09-18T08:58:07;19.40;99.90
48946;DHT22;34999;50.940;3.998;2023-09-18T09:00:36;19.40;99.90
48946;DHT22;34999;50.940;3.998;2023-09-18T09:03:05;19.50;99.90
48946;DHT22;34999;50.940;3.998;2023-09-18T09:05:33;19.50;99.90
48946;DHT22;34999;50.940;3.998;2023-09-18T09:08:02;19.50;99.90
48946;DHT22;34999;50.940;3.998;2023-09-18T09:10:30;19.60;99.90
48946;DHT22;34999;50.940;3.998;2023-09-18T09:12:59;19.70;99.90
48946;DHT22;34999;50.940;3.998;2023-09-18T09:15:34;19.70;99.90
48946;DHT22;34999;50.940;3.998;2023-09-18T09:18:04;19.70;99.90
48946;DHT22;34999;50.940;3.998;2023-09-18T09:20:34;19.70;99.90
48946;DHT22;34999;50.940;3.998;2023-09-18T09:23:04;19.70;99.90
48946;DHT22;34999;50.940;3.998;2023-09-18T09:25:33;19.70;99.90
48946;DHT22;34999;50.940;3.998;2023-09-18T09:28:03;19.70;99.90
48946;DHT22;34999;50.940;3.998;2023-09-18T09:30:35;19.70;99.90
48946;DHT22;34999;50.940;3.998;2023-09-18T09:33:05;19.60;99.90
48946;DHT22;34999;50.940;3.998;2023-09-18T09:35:36;19.60;99.90
48946;DHT22;34999;50.940;3.998;2023-09-18T09:38:08;19.60;99.90
48946;DHT22;34999;50.940;3.998;2023-09-18T09:40:39;19.60;99.90
48946;DHT22;34999;50.940;3.998;2023-09-18T09:43:10;19.70;99.90
48946;DHT22;34999;50.940;3.998;2023-09-18T09:45:42;19.80;99.90
48946;DHT22;34999;50.940;3.998;2023-09-18T09:48:14;19.70;99.90
48946;DHT22;34999;50.940;3.998;2023-09-18T09:50:47;19.60;99.90
48946;DHT22;34999;50.940;3.998;2023-09-18T09:53:16;19.60;99.90
48946;DHT22;34999;50.940;3.998;2023-09-18T09:55:51;19.60;99.90
48946;DHT22;34999;50.940;3.998;2023-09-18T09:58:26;19.50;99.90
48946;DHT22;34999;50.940;3.998;2023-09-18T10:01:03;19.60;99.90
48946;DHT22;34999;50.940;3.998;2023-09-18T10:03:36;19.50;99.90
48946;DHT22;34999;50.940;3.998;2023-09-18T10:06:06;19.50;99.90
48946;DHT22;34999;50.940;3.998;2023-09-18T10:08:38;19.40;99.90
48946;DHT22;34999;50.940;3.998;2023-09-18T10:11:09;19.40;99.90
48946;DHT22;34999;50.940;3.998;2023-09-18T10:13:41;19.40;99.90
48946;DHT22;34999;50.940;3.998;2023-09-18T10:16:17;19.40;99.90
48946;DHT22;34999;50.940;3.998;2023-09-18T10:18:55;19.50;99.90
48946;DHT22;34999;50.940;3.998;2023-09-18T10:21:29;19.60;99.90
48946;DHT22;34999;50.940;3.998;2023-09-18T10:24:04;19.80;99.90
48946;DHT22;34999;50.940;3.998;2023-09-18T10:26:49;20.10;99.90
48946;DHT22;34999;50.940;3.998;2023-09-18T10:29:19;20.60;99.90
48946;DHT22;34999;50.940;3.998;2023-09-18T10:31:50;20.90;99.90
48946;DHT22;34999;50.940;3.998;2023-09-18T10:34:19;21.20;99.90
48946;DHT22;34999;50.940;3.998;2023-09-18T10:36:49;21.40;99.90
48946;DHT22;34999;50.940;3.998;2023-09-18T10:39:18;21.50;99.90
48946;DHT22;34999;50.940;3.998;2023-09-18T10:41:47;21.40;99.90
48946;DHT22;34999;50.940;3.998;2023-09-18T10:44:17;21.70;99.90
48946;DHT22;34999;50.940;3.998;2023-09-18T10:46:46;22.00;99.90
48946;DHT22;34999;50.940;3.998;2023-09-18T10:49:16;22.00;99.90
48946;DHT22;34999;50.940;3.998;2023-09-18T10:51:46;21.70;99.90
48946;DHT22;34999;50.940;3.998;2023-09-18T10:54:16;21.40;99.90
48946;DHT22;34999;50.940;3.998;2023-09-18T10:56:45;21.40;99.90
48946;DHT22;34999;50.940;3.998;2023-09-18T10:59:14;21.20;99.90
48946;DHT22;34999;50.940;3.998;2023-09-18T11:01:48;21.10;99.90
48946;DHT22;34999;50.940;3.998;2023-09-18T11:04:20;21.20;99.90
48946;DHT22;34999;50.940;3.998;2023-09-18T11:07:01;21.60;99.90
48946;DHT22;34999;50.940;3.998;2023-09-18T11:09:41;21.80;99.90
48946;DHT22;34999;50.940;3.998;2023-09-18T11:12:10;21.90;99.90
48946;DHT22;34999;50.940;3.998;2023-09-18T11:14:46;21.80;99.90
48946;DHT22;34999;50.940;3.998;2023-09-18T11:17:32;22.00;99.90
48946;DHT22;34999;50.940;3.998;2023-09-18T11:20:09;22.40;99.90
48946;DHT22;34999;50.940;3.998;2023-09-18T11:22:45;22.60;99.90
48946;DHT22;34999;50.940;3.998;2023-09-18T11:25:36;22.80;99.90
48946;DHT22;34999;50.940;3.998;2023-09-18T11:28:06;22.80;99.90
48946;DHT22;34999;50.940;3.998;2023-09-18T11:30:36;22.70;99.90
48946;DHT22;34999;50.940;3.998;2023-09-18T11:33:06;22.70;99.90
48946;DHT22;34999;50.940;3.998;2023-09-18T11:35:38;23.00;99.90
48946;DHT22;34999;50.940;3.998;2023-09-18T11:38:19;23.20;99.90
48946;DHT22;34999;50.940;3.998;2023-09-18T11:40:50;23.50;99.90
48946;DHT22;34999;50.940;3.998;2023-09-18T11:43:51;23.60;99.90
48946;DHT22;34999;50.940;3.998;2023-09-18T11:46:20;23.40;99.90
48946;DHT22;34999;50.940;3.998;2023-09-18T11:48:49;23.40;99.90
48946;DHT22;34999;50.940;3.998;2023-09-18T11:51:23;23.20;99.90
48946;DHT22;34999;50.940;3.998;2023-09-18T11:53:55;23.20;99.90
48946;DHT22;34999;50.940;3.998;2023-09-18T11:56:24;23.00;99.90
48946;DHT22;34999;50.940;3.998;2023-09-18T11:58:52;23.10;99.90
48946;DHT22;34999;50.940;3.998;2023-09-18T12:01:22;23.30;99.90
48946;DHT22;34999;50.940;3.998;2023-09-18T12:03:54;23.40;99.90
48946;DHT22;34999;50.940;3.998;2023-09-18T12:06:24;23.80;99.90
48946;DHT22;34999;50.940;3.998;2023-09-18T12:08:52;24.00;99.90
48946;DHT22;34999;50.940;3.998;2023-09-18T12:11:22;23.90;99.90
48946;DHT22;34999;50.940;3.998;2023-09-18T12:13:51;23.70;99.90
48946;DHT22;34999;50.940;3.998;2023-09-18T12:16:19;23.70;99.90
48946;DHT22;34999;50.940;3.998;2023-09-18T12:18:48;24.00;99.90
48946;DHT22;34999;50.940;3.998;2023-09-18T12:21:17;23.90;99.90
48946;DHT22;34999;50.940;3.998;2023-09-18T12:30:34;23.90;99.90
48946;DHT22;34999;50.940;3.998;2023-09-18T12:33:02;23.90;99.90
48946;DHT22;34999;50.940;3.998;2023-09-18T12:35:31;23.80;99.90
48946;DHT22;34999;50.940;3.998;2023-09-18T12:38:00;23.80;99.90
48946;DHT22;34999;50.940;3.998;2023-09-18T12:40:32;23.80;99.90
48946;DHT22;34999;50.940;3.998;2023-09-18T12:43:01;23.90;99.90
48946;DHT22;34999;50.940;3.998;2023-09-18T12:45:30;23.90;99.90
48946;DHT22;34999;50.940;3.998;2023-09-18T12:48:00;24.00;99.90
48946;DHT22;34999;50.940;3.998;2023-09-18T12:50:31;24.10;99.90
48946;DHT22;34999;50.940;3.998;2023-09-18T12:53:09;24.00;99.90
48946;DHT22;34999;50.940;3.998;2023-09-18T12:55:38;23.80;99.90
48946;DHT22;34999;50.940;3.998;2023-09-18T13:01:48;23.80;99.90
48946;DHT22;34999;50.940;3.998;2023-09-18T13:04:19;24.00;99.90
48946;DHT22;34999;50.940;3.998;2023-09-18T13:07:03;23.90;99.90
48946;DHT22;34999;50.940;3.998;2023-09-18T13:09:32;24.00;99.90
48946;DHT22;34999;50.940;3.998;2023-09-18T13:12:02;24.10;99.90
48946;DHT22;34999;50.940;3.998;2023-09-18T13:14:57;24.20;99.90
48946;DHT22;34999;50.940;3.998;2023-09-18T13:17:26;24.20;99.90
48946;DHT22;34999;50.940;3.998;2023-09-18T13:19:56;24.30;99.90
48946;DHT22;34999;50.940;3.998;2023-09-18T13:22:24;23.90;99.90
48946;DHT22;34999;50.940;3.998;2023-09-18T13:24:56;23.70;99.90
48946;DHT22;34999;50.940;3.998;2023-09-18T13:27:24;23.70;99.90
48946;DHT22;34999;50.940;3.998;2023-09-18T13:29:53;23.60;99.90
48946;DHT22;34999;50.940;3.998;2023-09-18T13:32:22;23.50;99.90
48946;DHT22;34999;50.940;3.998;2023-09-18T13:34:50;23.50;99.90
48946;DHT22;34999;50.940;3.998;2023-09-18T13:37:21;23.50;99.90
48946;DHT22;34999;50.940;3.998;2023-09-18T13:39:49;23.50;99.90
48946;DHT22;34999;50.940;3.998;2023-09-18T13:42:18;23.30;99.90
48946;DHT22;34999;50.940;3.998;2023-09-18T13:44:46;23.30;99.90
48946;DHT22;34999;50.940;3.998;2023-09-18T13:47:16;23.20;99.90
48946;DHT22;34999;50.940;3.998;2023-09-18T13:49:44;23.20;99.90
48946;DHT22;34999;50.940;3.998;2023-09-18T13:52:13;23.20;99.90
48946;DHT22;34999;50.940;3.998;2023-09-18T13:54:46;23.20;99.90
48946;DHT22;34999;50.940;3.998;2023-09-18T13:57:18;23.10;99.90
48946;DHT22;34999;50.940;3.998;2023-09-18T14:00:05;23.00;99.90
48946;DHT22;34999;50.940;3.998;2023-09-18T14:09:25;19.80;99.90
48946;DHT22;34999;50.940;3.998;2023-09-18T14:11:56;19.50;99.90
48946;DHT22;34999;50.940;3.998;2023-09-18T14:14:25;19.60;99.90
48946;DHT22;34999;50.940;3.998;2023-09-18T14:16:53;19.80;99.90
48946;DHT22;34999;50.940;3.998;2023-09-18T14:19:24;20.20;99.90
48946;DHT22;34999;50.940;3.998;2023-09-18T14:21:52;20.40;99.90
48946;DHT22;34999;50.940;3.998;2023-09-18T14:24:21;20.50;99.90
48946;DHT22;34999;50.940;3.998;2023-09-18T14:26:52;20.50;99.90
48946;DHT22;34999;50.940;3.998;2023-09-18T14:29:24;20.30;99.90
48946;DHT22;34999;50.940;3.998;2023-09-18T14:31:53;20.30;99.90
48946;DHT22;34999;50.940;3.998;2023-09-18T14:34:21;20.10;99.90
48946;DHT22;34999;50.940;3.998;2023-09-18T14:36:50;20.00;99.90
48946;DHT22;34999;50.940;3.998;2023-09-18T14:39:19;20.00;99.90
48946;DHT22;34999;50.940;3.998;2023-09-18T14:41:47;19.90;99.90
48946;DHT22;34999;50.940;3.998;2023-09-18T14:44:16;19.90;99.90
48946;DHT22;34999;50.940;3.998;2023-09-18T14:46:46;19.90;99.90
48946;DHT22;34999;50.940;3.998;2023-09-18T14:49:14;19.80;99.90
48946;DHT22;34999;50.940;3.998;2023-09-18T14:51:43;19.90;99.90
48946;DHT22;34999;50.940;3.998;2023-09-18T14:54:11;20.10;99.90
48946;DHT22;34999;50.940;3.998;2023-09-18T14:56:41;20.60;99.90
48946;DHT22;34999;50.940;3.998;2023-09-18T14:59:13;21.00;99.90
48946;DHT22;34999;50.940;3.998;2023-09-18T15:01:51;21.40;99.90
48946;DHT22;34999;50.940;3.998;2023-09-18T15:04:20;21.70;99.90
48946;DHT22;34999;50.940;3.998;2023-09-18T15:06:49;21.70;99.90
48946;DHT22;34999;50.940;3.998;2023-09-18T15:09:19;21.70;99.90
48946;DHT22;34999;50.940;3.998;2023-09-18T15:11:47;21.60;99.90
48946;DHT22;34999;50.940;3.998;2023-09-18T15:14:16;21.30;99.90
48946;DHT22;34999;50.940;3.998;2023-09-18T15:16:44;21.00;99.90
48946;DHT22;34999;50.940;3.998;2023-09-18T15:22:56;20.80;99.90
48946;DHT22;34999;50.940;3.998;2023-09-18T15:25:24;20.70;99.90
48946;DHT22;34999;50.940;3.998;2023-09-18T15:31:33;20.80;99.90
48946;DHT22;34999;50.940;3.998;2023-09-18T15:34:02;21.20;99.90
48946;DHT22;34999;50.940;3.998;2023-09-18T15:36:30;21.80;99.90
48946;DHT22;34999;50.940;3.998;2023-09-18T15:42:41;22.60;99.90
48946;DHT22;34999;50.940;3.998;2023-09-18T15:45:10;22.80;99.90
48946;DHT22;34999;50.940;3.998;2023-09-18T15:47:39;22.60;99.90
48946;DHT22;34999;50.940;3.998;2023-09-18T15:50:10;22.30;99.90
48946;DHT22;34999;50.940;3.998;2023-09-18T15:52:39;22.10;99.90
48946;DHT22;34999;50.940;3.998;2023-09-18T15:55:08;21.80;99.90
48946;DHT22;34999;50.940;3.998;2023-09-18T15:57:37;21.50;99.90
48946;DHT22;34999;50.940;3.998;2023-09-18T16:00:12;21.30;99.90
48946;DHT22;34999;50.940;3.998;2023-09-18T16:02:45;21.20;99.90
48946;DHT22;34999;50.940;3.998;2023-09-18T16:05:13;21.10;99.90
48946;DHT22;34999;50.940;3.998;2023-09-18T16:07:42;21.40;99.90
48946;DHT22;34999;50.940;3.998;2023-09-18T16:10:12;21.70;99.90
48946;DHT22;34999;50.940;3.998;2023-09-18T16:12:40;21.90;99.90
48946;DHT22;34999;50.940;3.998;2023-09-18T16:15:10;22.00;99.90
48946;DHT22;34999;50.940;3.998;2023-09-18T16:17:38;21.80;99.90